Moran, Minnesota
Current Conditions -  °F | °C
As of 12:33 AM on Saturday 27 Dec 2014 (Local Time) from KSAZ Reporting Station
Overcast Overcast  
Wind Chill: -10°   Ceiling: 1900
Heat Index: -6°   Visibility: 10mi
Dew Point: -9°   Wind: 5mph
Humidity: 80%   Direction: 20°NNE
Pressure: 30.09"   Gusts: NA
Location:  46.4416°N, 94.6389°W
Report Text: KSAZ 270633Z AUTO 02004KT 10SM OVC019 M06/M09 A3009 RMK AO2
Loading
Personal Weather Stations






























Interactive Weather Map New forecast layout! Learn more

10-Day Weather Forecast

Advertisements
Track Severe Weather on mobile